Time;durP1;ratioP1;P1;durP2;ratioP2;P2;SDS_P1;SDS_P2;PMS_P1;PMS_P2;Temp;Humidity;BMP_temperature;BMP_pressure;BME280_temperature;BME280_humidity;BME280_pressure;Samples;Min_cycle;Max_cycle;Signal;HPM_P1;HPM_P2
2023/11/02 00:01:19;;;;;;;4.13;1.73;;;12.50;99.90;;;;;;4981354;28;20690;-80
2023/11/02 00:03:46;;;;;;;3.53;1.30;;;12.30;99.90;;;;;;4980255;28;20288;-83
2023/11/02 00:06:25;;;;;;;4.10;1.77;;;12.30;99.90;;;;;;4980556;28;20691;-83
2023/11/02 00:09:43;;;;;;;3.45;1.75;;;12.20;99.90;;;;;;4979028;28;20225;-81
2023/11/02 00:12:12;;;;;;;3.25;1.42;;;12.20;99.90;;;;;;4980566;28;20268;-82
2023/11/02 00:14:45;;;;;;;4.75;1.13;;;12.20;99.90;;;;;;4972173;28;20291;-83
2023/11/02 00:17:53;;;;;;;1.83;1.15;;;12.20;99.90;;;;;;4984153;28;20628;-82
2023/11/02 00:20:36;;;;;;;3.58;1.55;;;12.20;99.90;;;;;;4988082;28;20221;-83
2023/11/02 00:23:04;;;;;;;2.47;1.40;;;12.10;99.90;;;;;;4986272;28;20221;-82
2023/11/02 00:25:51;;;;;;;3.90;1.45;;;12.10;99.90;;;;;;4985993;28;20210;-82
2023/11/02 00:28:17;;;;;;;2.22;1.15;;;12.00;99.90;;;;;;4987633;28;20272;-82
2023/11/02 00:30:47;;;;;;;5.60;1.67;;;12.00;99.90;;;;;;4983724;28;20209;-84
2023/11/02 00:33:16;;;;;;;2.08;1.83;;;12.00;99.90;;;;;;4987767;28;20198;-83
2023/11/02 00:35:49;;;;;;;4.32;1.65;;;11.90;99.90;;;;;;4999246;28;20219;-83
2023/11/02 00:38:23;;;;;;;5.70;1.58;;;11.80;99.90;;;;;;4997313;28;20213;-83
2023/11/02 00:40:51;;;;;;;3.78;2.25;;;11.80;99.90;;;;;;5001421;28;20226;-81
2023/11/02 00:43:19;;;;;;;7.35;1.65;;;11.80;99.90;;;;;;5000809;28;20224;-82
2023/11/02 00:45:47;;;;;;;1.63;1.48;;;11.70;99.90;;;;;;4999410;28;20198;-82
2023/11/02 00:48:19;;;;;;;3.92;1.50;;;11.70;99.90;;;;;;5000488;28;20213;-83
2023/11/02 00:51:25;;;;;;;2.67;1.13;;;11.60;99.90;;;;;;4995487;28;20698;-81
2023/11/02 00:53:54;;;;;;;3.70;1.52;;;11.50;99.90;;;;;;4994081;28;20295;-82
2023/11/02 00:56:22;;;;;;;3.13;1.50;;;11.40;99.90;;;;;;4988205;28;20212;-82
2023/11/02 00:58:51;;;;;;;6.88;2.20;;;11.40;99.90;;;;;;4988656;28;20263;-80
2023/11/02 01:01:21;;;;;;;3.10;1.45;;;11.40;99.90;;;;;;4994716;28;20780;-82
2023/11/02 01:03:51;;;;;;;1.90;0.95;;;11.30;99.90;;;;;;4998411;28;20258;-81
2023/11/02 01:06:21;;;;;;;3.40;1.83;;;11.30;99.90;;;;;;4996496;28;20228;-82
2023/11/02 01:08:58;;;;;;;2.00;1.40;;;11.20;99.90;;;;;;4985885;28;20312;-82
2023/11/02 01:11:30;;;;;;;3.05;1.45;;;11.30;99.90;;;;;;4978598;28;20309;-82
2023/11/02 01:13:57;;;;;;;11.65;2.05;;;11.20;99.90;;;;;;4986260;28;20209;-81
2023/11/02 01:16:29;;;;;;;4.50;2.42;;;11.20;99.90;;;;;;4984159;28;20236;-82
2023/11/02 01:18:57;;;;;;;2.95;1.13;;;11.10;99.90;;;;;;4975816;28;20219;-82
2023/11/02 01:21:29;;;;;;;4.68;1.50;;;11.10;99.90;;;;;;4990082;28;20350;-82
2023/11/02 01:24:03;;;;;;;7.28;2.00;;;11.10;99.90;;;;;;4990598;28;20205;-82
2023/11/02 01:26:59;;;;;;;3.25;1.50;;;11.10;99.90;;;;;;4978727;28;20196;-84
2023/11/02 01:29:31;;;;;;;7.35;2.25;;;11.00;99.90;;;;;;4996087;28;20208;-83
2023/11/02 01:31:58;;;;;;;4.70;1.55;;;11.00;99.90;;;;;;4981055;28;20204;-82
2023/11/02 01:34:29;;;;;;;1.92;1.40;;;11.10;99.90;;;;;;4982826;28;20208;-84
2023/11/02 01:36:57;;;;;;;1.92;1.70;;;10.90;99.90;;;;;;4986959;28;20291;-83
2023/11/02 01:39:59;;;;;;;3.08;1.50;;;10.80;99.90;;;;;;4984999;28;20209;-83
2023/11/02 01:42:32;;;;;;;2.97;1.35;;;10.90;99.90;;;;;;4979213;28;20219;-82
2023/11/02 01:45:07;;;;;;;2.88;1.40;;;10.80;99.90;;;;;;4980980;28;20747;-83
2023/11/02 01:48:00;;;;;;;2.40;1.58;;;10.80;99.90;;;;;;4981169;28;20224;-83
2023/11/02 01:50:32;;;;;;;5.78;1.77;;;10.80;99.90;;;;;;4977862;28;20231;-84
2023/11/02 01:53:32;;;;;;;4.30;1.70;;;10.80;99.90;;;;;;4985099;28;20211;-83
2023/11/02 01:56:09;;;;;;;3.17;1.95;;;10.70;99.90;;;;;;4973207;28;20212;-81
2023/11/02 01:58:47;;;;;;;6.10;1.52;;;10.70;99.90;;;;;;4982883;28;20224;-83
2023/11/02 02:01:22;;;;;;;4.20;1.23;;;10.80;99.90;;;;;;4981481;28;20283;-82
2023/11/02 02:04:02;;;;;;;1.17;1.08;;;10.80;99.90;;;;;;4980843;28;20634;-83
2023/11/02 02:06:40;;;;;;;12.18;3.78;;;10.70;99.90;;;;;;4984295;28;20267;-82
2023/11/02 02:09:18;;;;;;;2.85;1.30;;;10.70;99.90;;;;;;4973774;28;20226;-82
2023/11/02 02:11:58;;;;;;;6.63;1.42;;;10.80;99.90;;;;;;4980350;28;20222;-84
2023/11/02 02:14:32;;;;;;;2.53;2.33;;;10.70;99.90;;;;;;4974372;28;20187;-82
2023/11/02 02:17:13;;;;;;;14.80;2.05;;;10.70;99.90;;;;;;4966810;28;20191;-82
2023/11/02 02:20:06;;;;;;;2.03;1.25;;;10.70;99.90;;;;;;4980159;28;20230;-83
2023/11/02 02:22:43;;;;;;;2.85;1.30;;;10.70;99.90;;;;;;4979606;28;20286;-82
2023/11/02 02:25:16;;;;;;;2.45;1.17;;;10.70;99.90;;;;;;4981430;28;20207;-83
2023/11/02 02:28:10;;;;;;;3.55;1.33;;;10.60;99.90;;;;;;4980840;28;20222;-82
2023/11/02 02:31:02;;;;;;;1.73;1.23;;;10.60;99.90;;;;;;4977816;28;20232;-82
2023/11/02 02:33:57;;;;;;;2.38;1.90;;;10.50;99.90;;;;;;4980189;28;20293;-82
2023/11/02 02:36:39;;;;;;;2.10;1.25;;;10.60;99.90;;;;;;4976711;28;20289;-84
2023/11/02 02:39:10;;;;;;;5.65;2.85;;;10.50;99.90;;;;;;4978727;28;20637;-83
2023/11/02 02:41:40;;;;;;;1.60;1.25;;;10.50;99.90;;;;;;4982230;28;20215;-84
2023/11/02 02:44:09;;;;;;;4.10;1.35;;;10.50;99.90;;;;;;4996233;28;20202;-83
2023/11/02 02:46:38;;;;;;;2.25;1.45;;;10.40;99.90;;;;;;4995615;28;20198;-82
2023/11/02 02:49:04;;;;;;;9.68;1.88;;;10.50;99.90;;;;;;4992847;28;20254;-82
2023/11/02 02:51:35;;;;;;;3.70;1.73;;;10.40;99.90;;;;;;4977141;28;20853;-81
2023/11/02 02:54:06;;;;;;;2.75;1.20;;;10.40;99.90;;;;;;4975225;28;20214;-82
2023/11/02 02:56:36;;;;;;;2.22;1.65;;;10.40;99.90;;;;;;4981371;28;20723;-81
2023/11/02 02:59:07;;;;;;;3.67;1.83;;;10.40;99.90;;;;;;4983607;28;20291;-81
2023/11/02 03:01:38;;;;;;;2.83;1.20;;;10.40;99.90;;;;;;4985904;28;20271;-81
2023/11/02 03:04:14;;;;;;;2.75;1.42;;;10.30;99.90;;;;;;4981972;28;20214;-82
2023/11/02 03:06:45;;;;;;;4.75;1.95;;;10.30;99.90;;;;;;4979595;28;20651;-83
2023/11/02 03:09:15;;;;;;;3.55;1.25;;;10.30;99.90;;;;;;4989136;28;20247;-81
2023/11/02 03:11:44;;;;;;;2.22;1.60;;;10.40;99.90;;;;;;4990884;28;20216;-83
2023/11/02 03:14:13;;;;;;;5.05;1.80;;;10.30;99.90;;;;;;4994914;28;20226;-83
2023/11/02 03:16:43;;;;;;;4.45;1.80;;;10.20;99.90;;;;;;4985173;28;20222;-82
2023/11/02 03:19:24;;;;;;;3.17;1.40;;;10.20;99.90;;;;;;4986018;28;20211;-82
2023/11/02 03:21:52;;;;;;;3.65;1.75;;;10.20;99.90;;;;;;4966831;28;20218;-83
2023/11/02 03:24:25;;;;;;;2.75;1.38;;;10.10;99.90;;;;;;4987358;28;20213;-81
2023/11/02 03:26:59;;;;;;;6.85;1.77;;;10.20;99.90;;;;;;4991472;28;20229;-82
2023/11/02 03:29:39;;;;;;;5.50;1.70;;;10.20;99.90;;;;;;4994941;28;20203;-81
2023/11/02 03:32:14;;;;;;;1.88;1.00;;;10.10;99.90;;;;;;4991608;28;20249;-82
2023/11/02 03:34:50;;;;;;;4.80;1.45;;;10.10;99.90;;;;;;4993223;28;20229;-81
2023/11/02 03:37:24;;;;;;;5.00;1.50;;;10.20;99.90;;;;;;4991962;28;20261;-82
2023/11/02 03:40:10;;;;;;;3.08;1.60;;;10.20;99.90;;;;;;5000530;28;20205;-82
2023/11/02 03:42:45;;;;;;;1.38;1.00;;;10.20;99.90;;;;;;4992254;28;20264;-82
2023/11/02 03:45:20;;;;;;;3.50;1.33;;;10.20;99.90;;;;;;4991669;28;20249;-82
2023/11/02 03:47:57;;;;;;;1.60;1.33;;;10.30;99.90;;;;;;5001645;28;20214;-82
2023/11/02 03:50:49;;;;;;;1.83;1.40;;;10.30;99.90;;;;;;5000280;28;20198;-82
2023/11/02 03:53:29;;;;;;;3.38;2.25;;;10.30;99.90;;;;;;4990562;28;20228;-82
2023/11/02 03:56:10;;;;;;;3.10;1.42;;;10.30;99.90;;;;;;4995786;28;20205;-83
2023/11/02 03:58:55;;;;;;;4.32;1.33;;;10.20;99.90;;;;;;4995944;28;20253;-83
2023/11/02 04:01:30;;;;;;;2.60;1.55;;;10.20;99.90;;;;;;4989612;28;20238;-81
2023/11/02 04:04:04;;;;;;;1.45;1.08;;;10.20;99.90;;;;;;4985426;28;20207;-82
2023/11/02 04:06:42;;;;;;;2.10;1.60;;;10.20;99.90;;;;;;4997381;28;20217;-81
2023/11/02 04:09:15;;;;;;;2.72;1.30;;;10.20;99.90;;;;;;4994689;28;20218;-82
2023/11/02 04:11:53;;;;;;;2.45;1.70;;;10.20;99.90;;;;;;4997679;28;20226;-81
2023/11/02 04:14:24;;;;;;;1.45;1.25;;;10.20;99.90;;;;;;5000329;28;20656;-81
2023/11/02 04:16:51;;;;;;;2.53;2.30;;;10.20;99.90;;;;;;4999038;28;20231;-82
2023/11/02 04:19:18;;;;;;;3.03;1.55;;;10.20;99.90;;;;;;4991365;28;20221;-82
2023/11/02 04:21:45;;;;;;;3.13;1.42;;;10.30;99.90;;;;;;4996965;28;20266;-81
2023/11/02 04:24:13;;;;;;;1.98;1.67;;;10.30;99.90;;;;;;4996853;28;20222;-81
2023/11/02 04:26:40;;;;;;;2.47;1.27;;;10.30;99.90;;;;;;5001513;28;20218;-82
2023/11/02 04:29:07;;;;;;;2.67;1.40;;;10.40;99.90;;;;;;5000147;28;20271;-82
2023/11/02 04:31:34;;;;;;;4.43;1.10;;;10.40;99.90;;;;;;4999726;28;20202;-83
2023/11/02 04:34:00;;;;;;;3.80;1.10;;;10.40;99.90;;;;;;4999542;28;20263;-82
2023/11/02 04:36:27;;;;;;;2.90;1.48;;;10.40;99.90;;;;;;4999408;28;20229;-82
2023/11/02 04:38:54;;;;;;;2.13;1.40;;;10.50;99.90;;;;;;5000036;28;20217;-81
2023/11/02 04:41:23;;;;;;;2.85;1.42;;;10.50;99.90;;;;;;4999953;28;20222;-82
2023/11/02 04:43:50;;;;;;;1.25;0.98;;;10.50;99.90;;;;;;4999893;28;20197;-81
2023/11/02 04:46:16;;;;;;;3.65;1.75;;;10.50;99.90;;;;;;4999084;28;20191;-82
2023/11/02 04:48:43;;;;;;;3.85;1.67;;;10.50;99.90;;;;;;4998090;28;20268;-83
2023/11/02 04:51:11;;;;;;;2.88;1.38;;;10.60;99.90;;;;;;4997585;28;20224;-83
2023/11/02 04:53:38;;;;;;;2.75;1.80;;;10.60;99.90;;;;;;4993551;28;20203;-82
2023/11/02 04:56:05;;;;;;;3.05;1.50;;;10.70;99.90;;;;;;4996828;28;20235;-81
2023/11/02 04:58:33;;;;;;;2.15;1.30;;;10.70;99.90;;;;;;4995843;28;20251;-81
2023/11/02 05:01:00;;;;;;;3.67;1.30;;;10.70;99.90;;;;;;4995441;28;20247;-80
2023/11/02 05:03:27;;;;;;;3.22;1.30;;;10.60;99.90;;;;;;4999731;28;20217;-80
2023/11/02 05:05:54;;;;;;;2.40;1.30;;;10.80;99.90;;;;;;4998727;28;20210;-81
2023/11/02 05:08:22;;;;;;;4.85;1.40;;;10.60;99.90;;;;;;4998887;28;20235;-80
2023/11/02 05:10:48;;;;;;;3.60;1.70;;;10.70;99.90;;;;;;5000023;28;20211;-80
2023/11/02 05:13:15;;;;;;;2.13;1.50;;;10.60;99.90;;;;;;4990438;28;20226;-80
2023/11/02 05:15:43;;;;;;;3.38;1.67;;;10.60;99.90;;;;;;4995045;28;20195;-81
2023/11/02 05:18:10;;;;;;;1.92;1.38;;;10.60;99.90;;;;;;4993107;28;20223;-82
2023/11/02 05:20:37;;;;;;;2.17;1.50;;;10.60;99.90;;;;;;4989666;28;20271;-83
2023/11/02 05:23:05;;;;;;;1.80;1.35;;;10.60;99.90;;;;;;4987948;28;20231;-81
2023/11/02 05:25:33;;;;;;;4.60;1.52;;;10.60;99.90;;;;;;4991332;28;20211;-83
2023/11/02 05:28:00;;;;;;;2.53;1.20;;;10.60;99.90;;;;;;4987195;28;20227;-83
2023/11/02 05:30:27;;;;;;;5.00;2.10;;;10.70;99.90;;;;;;4985794;28;20486;-84
2023/11/02 05:32:55;;;;;;;10.02;1.90;;;10.60;99.90;;;;;;4979429;28;20203;-82
2023/11/02 05:35:22;;;;;;;15.00;4.07;;;10.70;99.90;;;;;;4986214;28;20202;-83
2023/11/02 05:37:49;;;;;;;1.90;1.50;;;10.70;99.90;;;;;;4992133;28;20253;-84
2023/11/02 05:40:15;;;;;;;1.83;1.20;;;10.80;99.90;;;;;;4985277;28;20231;-82
2023/11/02 05:42:42;;;;;;;1.60;1.40;;;10.80;99.90;;;;;;4985683;28;20223;-84
2023/11/02 05:45:10;;;;;;;4.43;1.48;;;10.80;99.90;;;;;;4984359;28;20204;-84
2023/11/02 05:47:37;;;;;;;2.35;1.35;;;10.80;99.90;;;;;;4989907;28;20250;-83
2023/11/02 05:50:06;;;;;;;2.05;1.38;;;10.80;99.90;;;;;;4983441;28;20223;-84
2023/11/02 05:52:34;;;;;;;3.05;1.35;;;10.80;99.90;;;;;;4988264;28;20203;-84
2023/11/02 05:55:18;;;;;;;2.50;1.02;;;10.90;99.90;;;;;;4983749;28;20230;-85
2023/11/02 05:57:45;;;;;;;4.82;1.23;;;11.00;99.90;;;;;;4983585;28;20228;-83
2023/11/02 06:00:13;;;;;;;3.45;1.33;;;11.00;99.90;;;;;;4991640;28;20231;-82
2023/11/02 06:02:40;;;;;;;2.63;1.58;;;11.00;99.90;;;;;;4989226;28;20258;-83
2023/11/02 06:05:09;;;;;;;2.72;1.13;;;11.00;99.90;;;;;;4993173;28;20233;-83
2023/11/02 06:07:38;;;;;;;3.17;1.48;;;11.10;99.90;;;;;;4987507;28;20228;-82
2023/11/02 06:10:06;;;;;;;1.92;1.40;;;11.10;99.90;;;;;;4987268;28;20220;-83
2023/11/02 06:12:33;;;;;;;1.70;1.30;;;11.10;99.90;;;;;;4986350;28;20296;-84
2023/11/02 06:15:00;;;;;;;2.88;1.25;;;11.20;99.90;;;;;;4985766;28;20690;-84
2023/11/02 06:17:27;;;;;;;4.50;1.67;;;11.20;99.90;;;;;;4985010;28;20256;-84
2023/11/02 06:19:54;;;;;;;5.70;1.10;;;11.20;99.90;;;;;;4985405;28;20218;-81
2023/11/02 06:22:22;;;;;;;5.15;1.50;;;11.30;99.90;;;;;;4985814;28;20225;-84
2023/11/02 06:24:49;;;;;;;4.20;1.50;;;11.20;99.90;;;;;;4985935;28;20213;-83
2023/11/02 06:27:15;;;;;;;4.35;1.70;;;11.30;99.90;;;;;;4986723;28;20294;-84
2023/11/02 06:29:42;;;;;;;4.55;1.88;;;11.20;99.90;;;;;;4985974;28;20303;-83
2023/11/02 06:32:09;;;;;;;3.35;2.58;;;11.10;99.90;;;;;;4987725;28;20281;-84
2023/11/02 06:34:37;;;;;;;2.22;1.55;;;11.10;99.90;;;;;;4988485;28;20241;-86
2023/11/02 06:37:06;;;;;;;4.40;1.88;;;11.10;99.90;;;;;;4992592;28;20218;-84
2023/11/02 06:39:35;;;;;;;4.20;1.90;;;11.20;99.90;;;;;;4992214;28;20227;-84
2023/11/02 06:42:02;;;;;;;5.10;2.35;;;11.20;99.90;;;;;;4989522;28;20291;-84
2023/11/02 06:44:29;;;;;;;6.05;1.60;;;11.10;99.90;;;;;;4989530;28;20610;-82
2023/11/02 06:46:56;;;;;;;3.15;1.40;;;11.20;99.90;;;;;;4987600;28;20213;-83
2023/11/02 06:49:23;;;;;;;3.78;1.30;;;11.20;99.90;;;;;;4987051;28;20233;-82
2023/11/02 06:51:52;;;;;;;2.78;1.30;;;11.30;99.90;;;;;;4993471;28;20208;-83
2023/11/02 06:54:19;;;;;;;1.80;1.20;;;11.30;99.90;;;;;;4989502;28;20204;-82
2023/11/02 06:56:50;;;;;;;2.72;1.95;;;11.30;99.90;;;;;;4986609;28;20646;-81
2023/11/02 06:59:17;;;;;;;3.63;1.35;;;11.50;99.90;;;;;;4990482;28;20228;-81
2023/11/02 07:07:49;;;;;;;2.45;1.50;;;11.40;99.90;;;;;;4963348;28;20227;-80
2023/11/02 07:10:17;;;;;;;4.00;1.52;;;11.40;99.90;;;;;;4991754;28;20223;-80
2023/11/02 07:12:45;;;;;;;2.42;1.55;;;11.40;99.90;;;;;;4993960;28;20196;-81
2023/11/02 07:15:24;;;;;;;5.28;1.98;;;11.50;99.90;;;;;;4986917;28;20214;-83
2023/11/02 07:18:00;;;;;;;4.15;1.90;;;11.50;99.90;;;;;;4994677;28;20268;-82
2023/11/02 07:20:26;;;;;;;10.60;2.47;;;11.50;99.90;;;;;;4998032;28;20193;-83
2023/11/02 07:22:53;;;;;;;6.65;2.67;;;11.70;99.90;;;;;;5010197;23;20243;-71
2023/11/02 07:25:20;;;;;;;4.65;1.65;;;11.70;99.90;;;;;;4999190;28;20283;-73
2023/11/02 07:27:48;;;;;;;2.15;1.50;;;11.70;99.90;;;;;;4998887;28;20306;-75
2023/11/02 07:30:15;;;;;;;2.92;1.63;;;11.80;99.90;;;;;;5002011;28;20218;-75
2023/11/02 07:32:42;;;;;;;3.45;1.75;;;11.70;99.90;;;;;;5008355;28;20286;-73
2023/11/02 07:35:10;;;;;;;4.85;1.67;;;11.70;99.90;;;;;;5009951;28;20233;-77
2023/11/02 07:37:37;;;;;;;4.20;1.60;;;11.80;99.90;;;;;;4999085;28;20219;-75
2023/11/02 07:40:04;;;;;;;3.78;1.98;;;11.80;99.90;;;;;;5006233;28;20235;-73
2023/11/02 07:42:31;;;;;;;3.88;1.55;;;11.80;99.90;;;;;;4996230;28;20224;-74
2023/11/02 07:44:59;;;;;;;3.17;1.15;;;11.80;99.90;;;;;;4996936;28;20234;-72
2023/11/02 07:47:26;;;;;;;1.77;1.63;;;11.90;99.90;;;;;;4997471;28;20208;-74
2023/11/02 07:49:53;;;;;;;3.97;1.75;;;11.90;99.90;;;;;;4997827;28;20690;-73
2023/11/02 07:52:20;;;;;;;6.88;1.00;;;12.00;99.90;;;;;;4996297;28;21461;-73
2023/11/02 07:54:48;;;;;;;7.63;1.10;;;11.90;99.90;;;;;;5004765;28;20319;-72
2023/11/02 07:57:15;;;;;;;5.43;1.52;;;12.00;99.90;;;;;;5000136;28;20212;-77
2023/11/02 07:59:42;;;;;;;3.80;1.50;;;12.10;99.90;;;;;;5001356;28;20212;-73
2023/11/02 08:02:11;;;;;;;3.40;1.70;;;12.10;99.90;;;;;;4995972;28;20641;-74
2023/11/02 08:04:39;;;;;;;3.00;1.10;;;12.20;99.90;;;;;;4996915;28;20259;-74
2023/11/02 08:07:07;;;;;;;2.03;1.48;;;12.20;99.90;;;;;;4982988;28;20243;-74
2023/11/02 08:09:34;;;;;;;3.47;1.30;;;12.20;99.90;;;;;;4996058;28;20208;-74
2023/11/02 08:12:02;;;;;;;2.17;1.00;;;12.20;99.90;;;;;;4996808;28;20303;-75
2023/11/02 08:14:29;;;;;;;6.18;1.88;;;12.20;99.90;;;;;;4996905;28;20220;-73
2023/11/02 08:16:56;;;;;;;7.32;1.65;;;12.30;99.90;;;;;;4997826;28;20239;-75
2023/11/02 08:19:24;;;;;;;1.10;1.00;;;12.20;99.90;;;;;;4997033;28;20212;-71
2023/11/02 08:21:51;;;;;;;4.50;1.02;;;12.30;99.90;;;;;;5005230;28;20200;-73
2023/11/02 08:24:18;;;;;;;2.67;1.08;;;12.30;99.90;;;;;;5006004;28;20231;-73
2023/11/02 08:26:45;;;;;;;2.80;1.05;;;12.40;99.90;;;;;;4998264;28;20208;-72
2023/11/02 08:29:12;;;;;;;2.85;1.20;;;12.40;99.90;;;;;;5002945;28;20254;-74
2023/11/02 08:31:39;;;;;;;4.57;1.50;;;12.40;99.90;;;;;;4997702;28;20209;-74
2023/11/02 08:34:10;;;;;;;4.78;1.25;;;12.40;99.90;;;;;;4999423;28;20225;-74
2023/11/02 08:36:38;;;;;;;2.50;1.17;;;12.40;99.90;;;;;;5001405;28;20208;-72
2023/11/02 08:39:06;;;;;;;3.45;1.40;;;12.40;99.90;;;;;;4997955;28;20289;-74
2023/11/02 08:41:34;;;;;;;2.28;1.17;;;12.40;99.90;;;;;;4995184;28;20200;-74
2023/11/02 08:44:03;;;;;;;4.95;1.73;;;12.40;99.90;;;;;;5001217;28;20229;-72
2023/11/02 08:46:32;;;;;;;5.07;1.52;;;12.40;99.90;;;;;;5000291;28;20590;-73
2023/11/02 08:48:59;;;;;;;3.78;1.60;;;12.50;99.90;;;;;;4997278;28;20635;-72
2023/11/02 08:51:26;;;;;;;2.15;1.02;;;12.50;99.90;;;;;;5006639;28;20205;-74
2023/11/02 08:53:55;;;;;;;3.47;1.55;;;12.50;99.90;;;;;;4999493;28;20267;-74
2023/11/02 08:56:22;;;;;;;2.50;1.45;;;12.60;99.90;;;;;;4996092;28;20298;-72
2023/11/02 08:58:50;;;;;;;2.25;1.42;;;12.50;99.90;;;;;;4997022;28;20202;-75
2023/11/02 09:01:22;;;;;;;1.88;1.20;;;12.50;99.90;;;;;;5001234;28;20628;-76
2023/11/02 09:03:51;;;;;;;8.55;1.90;;;12.50;99.90;;;;;;4999763;28;20602;-75
2023/11/02 09:06:19;;;;;;;2.15;1.27;;;12.50;99.90;;;;;;4995837;28;20208;-76
2023/11/02 09:09:21;;;;;;;2.45;1.30;;;12.60;99.90;;;;;;5011036;23;20217;-88
2023/11/02 09:11:48;;;;;;;2.67;1.23;;;12.70;99.90;;;;;;5023886;28;20204;-82
2023/11/02 09:14:15;;;;;;;2.63;1.30;;;12.60;99.90;;;;;;5018424;28;20231;-82
2023/11/02 09:16:42;;;;;;;2.97;1.30;;;12.60;99.90;;;;;;5014369;28;20205;-82
2023/11/02 09:19:09;;;;;;;4.00;1.35;;;12.70;99.90;;;;;;4999847;28;20245;-84
2023/11/02 09:21:42;;;;;;;2.70;1.50;;;12.70;99.90;;;;;;4998524;28;20230;-83
2023/11/02 09:24:09;;;;;;;2.92;1.25;;;12.70;99.90;;;;;;5011592;28;20227;-83
2023/11/02 09:26:39;;;;;;;2.53;1.08;;;12.70;99.90;;;;;;5004902;28;20248;-84
2023/11/02 09:29:06;;;;;;;3.47;1.45;;;12.70;99.90;;;;;;4992773;28;20234;-85
2023/11/02 09:31:33;;;;;;;1.08;0.70;;;12.80;99.90;;;;;;4988834;28;20302;-83
2023/11/02 09:34:01;;;;;;;2.20;1.52;;;12.80;99.90;;;;;;5004055;28;20241;-84
2023/11/02 09:36:29;;;;;;;3.17;1.15;;;12.80;99.90;;;;;;5001391;28;20198;-82
2023/11/02 09:38:59;;;;;;;3.10;1.20;;;12.80;99.90;;;;;;5013512;28;20230;-84
2023/11/02 09:41:26;;;;;;;2.42;0.93;;;12.80;99.90;;;;;;4995678;28;20262;-83
2023/11/02 09:43:55;;;;;;;4.10;1.17;;;12.80;99.90;;;;;;5002465;28;20308;-84
2023/11/02 09:46:23;;;;;;;3.08;1.20;;;12.80;99.90;;;;;;5001897;28;20226;-85
2023/11/02 09:48:50;;;;;;;2.75;1.35;;;12.80;99.90;;;;;;5000524;28;20226;-84
2023/11/02 09:51:17;;;;;;;2.55;1.40;;;12.90;99.90;;;;;;5007424;28;20200;-84
2023/11/02 09:53:44;;;;;;;4.38;1.42;;;12.90;99.90;;;;;;5012606;28;20192;-84
2023/11/02 09:56:12;;;;;;;1.80;1.20;;;12.90;99.90;;;;;;5004294;28;20204;-86
2023/11/02 09:58:39;;;;;;;2.08;0.80;;;13.10;99.90;;;;;;5013060;28;20218;-85
2023/11/02 10:01:11;;;;;;;3.75;1.38;;;13.10;99.90;;;;;;5011376;28;20258;-84
2023/11/02 10:03:38;;;;;;;2.88;1.20;;;13.20;99.90;;;;;;5006083;28;20225;-83
2023/11/02 10:06:07;;;;;;;1.30;1.00;;;13.30;99.90;;;;;;5002885;28;20198;-85
2023/11/02 10:08:34;;;;;;;4.93;1.15;;;13.20;99.90;;;;;;5001716;28;20225;-85
2023/11/02 10:11:11;;;;;;;3.30;1.38;;;13.40;99.90;;;;;;5009475;28;20228;-85
2023/11/02 10:13:38;;;;;;;1.65;1.05;;;13.40;99.90;;;;;;5001462;28;20205;-82
2023/11/02 10:16:06;;;;;;;3.20;0.80;;;13.30;99.90;;;;;;5009202;28;20217;-85
2023/11/02 10:18:34;;;;;;;1.48;1.15;;;13.30;99.90;;;;;;5015341;28;20723;-83
2023/11/02 10:21:05;;;;;;;1.80;0.80;;;13.40;99.90;;;;;;5005656;28;20244;-83
2023/11/02 10:23:48;;;;;;;5.15;1.10;;;13.50;99.90;;;;;;4992811;28;20236;-84
2023/11/02 10:26:15;;;;;;;2.85;1.00;;;13.50;99.90;;;;;;4991487;28;20226;-84
2023/11/02 10:28:42;;;;;;;2.35;1.73;;;13.60;99.90;;;;;;4996563;28;20244;-82
2023/11/02 10:31:09;;;;;;;6.68;1.15;;;13.70;99.90;;;;;;5005831;28;20290;-84
2023/11/02 10:33:37;;;;;;;2.75;0.90;;;13.80;99.90;;;;;;5003682;28;20252;-83
2023/11/02 10:36:07;;;;;;;1.42;0.80;;;14.00;99.90;;;;;;5006522;28;20230;-82
2023/11/02 10:38:35;;;;;;;2.83;1.08;;;14.10;99.90;;;;;;5002179;28;20253;-84
2023/11/02 10:41:02;;;;;;;3.67;0.90;;;14.50;99.90;;;;;;5008903;28;20205;-82
2023/11/02 10:43:30;;;;;;;2.55;1.23;;;14.70;99.90;;;;;;5018854;28;20270;-83
2023/11/02 10:45:57;;;;;;;3.88;0.90;;;14.50;99.90;;;;;;5004950;28;20196;-82
2023/11/02 10:48:27;;;;;;;1.55;0.85;;;14.60;99.90;;;;;;5009430;28;20271;-84
2023/11/02 10:50:57;;;;;;;4.60;1.15;;;14.50;99.90;;;;;;5010098;28;20186;-83
2023/11/02 10:53:34;;;;;;;1.00;0.73;;;14.30;99.90;;;;;;5001143;28;20194;-82
2023/11/02 10:56:07;;;;;;;1.00;0.80;;;14.50;99.90;;;;;;5009292;28;20250;-82
2023/11/02 10:58:35;;;;;;;2.17;0.90;;;14.60;99.90;;;;;;5015970;28;20228;-83
2023/11/02 11:01:03;;;;;;;2.17;0.70;;;14.50;99.90;;;;;;5006060;28;20207;-82
2023/11/02 11:03:31;;;;;;;4.07;1.50;;;14.60;99.90;;;;;;5005469;28;20246;-85
2023/11/02 11:06:00;;;;;;;1.90;1.42;;;14.60;99.90;;;;;;5001178;28;20603;-83
2023/11/02 11:08:28;;;;;;;1.20;0.82;;;14.70;99.90;;;;;;5001316;28;20220;-83
2023/11/02 11:10:57;;;;;;;1.23;0.80;;;14.70;99.90;;;;;;5005367;28;20209;-80
2023/11/02 11:13:26;;;;;;;1.38;0.90;;;14.70;99.90;;;;;;4998417;28;20649;-81
2023/11/02 11:15:54;;;;;;;3.60;1.40;;;14.80;99.90;;;;;;5014708;28;20230;-83
2023/11/02 11:18:23;;;;;;;2.80;1.08;;;14.80;99.90;;;;;;5007155;28;20214;-83
2023/11/02 11:20:50;;;;;;;3.17;0.75;;;14.90;99.90;;;;;;5007158;28;20312;-82
2023/11/02 11:23:18;;;;;;;1.40;0.60;;;14.90;99.90;;;;;;5002142;28;20204;-83
2023/11/02 11:26:00;;;;;;;4.95;0.90;;;15.10;99.90;;;;;;5020342;28;20233;-83
2023/11/02 11:28:31;;;;;;;2.03;0.70;;;15.10;99.90;;;;;;5005429;28;20227;-83
2023/11/02 11:30:59;;;;;;;1.70;0.80;;;15.10;99.90;;;;;;4994379;28;20204;-86
2023/11/02 11:36:48;;;;;;;1.23;0.70;;;15.20;99.90;;;;;;4998471;28;20244;-83
2023/11/02 11:39:36;;;;;;;2.50;0.90;;;15.30;99.90;;;;;;5002553;28;20210;-83
2023/11/02 11:42:03;;;;;;;1.65;0.60;;;15.40;99.90;;;;;;4990373;28;20452;-84
2023/11/02 11:44:31;;;;;;;1.00;0.68;;;15.40;99.90;;;;;;4997770;28;20223;-83
2023/11/02 11:47:00;;;;;;;1.70;1.00;;;15.50;99.90;;;;;;4999306;28;20209;-84
2023/11/02 11:49:47;;;;;;;1.50;0.80;;;15.40;99.90;;;;;;4994230;28;20205;-83
2023/11/02 11:52:21;;;;;;;1.23;0.85;;;15.30;99.90;;;;;;5009949;28;20187;-83
2023/11/02 11:54:50;;;;;;;2.13;1.05;;;15.40;99.90;;;;;;5016330;28;20211;-84
2023/11/02 11:57:53;;;;;;;1.58;0.80;;;15.30;99.90;;;;;;5016250;28;20215;-83
2023/11/02 12:00:21;;;;;;;1.30;0.70;;;15.20;99.90;;;;;;5007790;28;20222;-83
2023/11/02 12:02:52;;;;;;;3.83;0.82;;;15.30;99.90;;;;;;5009078;28;20227;-83
2023/11/02 12:05:52;;;;;;;2.00;0.80;;;15.30;99.90;;;;;;5015725;28;20245;-84
2023/11/02 12:08:19;;;;;;;3.13;1.15;;;15.40;99.90;;;;;;5009900;28;20231;-83
2023/11/02 12:10:50;;;;;;;2.55;0.80;;;15.40;99.90;;;;;;5008623;28;20215;-83
2023/11/02 12:13:17;;;;;;;1.97;1.50;;;15.50;99.90;;;;;;5012717;28;20250;-83
2023/11/02 12:15:57;;;;;;;1.23;0.70;;;15.40;99.90;;;;;;5001834;28;20484;-84
2023/11/02 12:18:25;;;;;;;2.80;0.90;;;15.40;99.90;;;;;;5005864;28;20544;-83
2023/11/02 12:20:52;;;;;;;1.90;0.98;;;15.30;99.90;;;;;;5012927;28;20510;-84
2023/11/02 12:23:20;;;;;;;2.33;0.80;;;15.30;99.90;;;;;;5002378;28;20221;-83
2023/11/02 12:25:52;;;;;;;2.65;0.70;;;15.30;99.90;;;;;;5015809;28;20495;-81
2023/11/02 12:28:19;;;;;;;4.60;0.90;;;15.20;99.90;;;;;;5008201;28;20325;-83
2023/11/02 12:30:46;;;;;;;1.55;0.88;;;15.20;99.90;;;;;;5016178;28;20528;-84
2023/11/02 12:33:20;;;;;;;1.58;1.00;;;15.10;99.90;;;;;;5016691;28;20264;-83
2023/11/02 12:35:53;;;;;;;1.20;0.80;;;15.20;99.90;;;;;;5007269;28;20246;-85
2023/11/02 12:41:14;;;;;;;2.67;0.70;;;15.10;99.90;;;;;;4994015;28;20485;-77
2023/11/02 12:43:43;;;;;;;3.28;0.95;;;15.10;99.90;;;;;;4993268;28;20229;-77
2023/11/02 12:46:10;;;;;;;1.48;0.95;;;15.10;99.90;;;;;;4976643;28;20206;-76
2023/11/02 12:48:39;;;;;;;1.27;0.95;;;15.00;99.90;;;;;;4977737;28;20289;-76
2023/11/02 12:51:17;;;;;;;3.20;0.95;;;15.00;99.90;;;;;;4969213;28;20203;-77
2023/11/02 12:53:44;;;;;;;1.05;0.75;;;14.90;99.90;;;;;;4975764;28;20254;-75
2023/11/02 12:56:12;;;;;;;4.65;1.33;;;14.80;99.90;;;;;;4976333;28;20237;-79
2023/11/02 12:58:40;;;;;;;2.83;1.02;;;14.90;99.90;;;;;;4975290;28;20558;-76
2023/11/02 13:01:09;;;;;;;3.15;0.82;;;14.80;99.90;;;;;;4965384;28;20350;-75
2023/11/02 13:03:35;;;;;;;1.25;0.70;;;14.70;99.90;;;;;;4971356;28;20266;-76
2023/11/02 13:06:03;;;;;;;3.03;1.08;;;14.80;99.90;;;;;;4972610;28;20265;-76
2023/11/02 13:08:32;;;;;;;4.63;0.98;;;14.80;99.90;;;;;;4975495;28;20206;-74
2023/11/02 13:11:01;;;;;;;2.85;1.10;;;14.90;99.90;;;;;;4972383;28;20209;-77
2023/11/02 13:13:38;;;;;;;2.80;1.73;;;14.90;99.90;;;;;;4975755;28;20231;-74
2023/11/02 13:16:06;;;;;;;3.03;1.08;;;14.90;99.90;;;;;;4976905;28;20673;-75
2023/11/02 13:18:33;;;;;;;2.20;0.90;;;14.90;99.90;;;;;;4976020;28;20203;-75